Time;durP1;ratioP1;P1;durP2;ratioP2;P2;SDS_P1;SDS_P2;PMS_P1;PMS_P2;Temp;Humidity;BMP_temperature;BMP_pressure;BME280_temperature;BME280_humidity;BME280_pressure;Samples;Min_cycle;Max_cycle;Signal;HPM_P1;HPM_P2
2022/08/04 00:02:59;;;;;;;4.37;4.07;;;;;;;26.44;44.32;95225.56;6181704;28;103784;-70
2022/08/04 00:06:05;;;;;;;4.27;4.07;;;;;;;26.41;44.72;95226.22;6182591;28;104072;-70
2022/08/04 00:09:13;;;;;;;4.40;4.10;;;;;;;26.30;45.35;95221.56;6176497;28;103709;-71
2022/08/04 00:12:17;;;;;;;4.20;3.73;;;;;;;26.37;45.23;95235.22;6170059;28;103735;-68
2022/08/04 00:15:24;;;;;;;4.00;3.70;;;;;;;26.28;45.20;95238.00;6159828;28;104040;-70
2022/08/04 00:18:34;;;;;;;4.43;4.13;;;;;;;26.35;45.18;95230.19;6181563;28;106916;-71
2022/08/04 00:21:41;;;;;;;4.30;4.00;;;;;;;26.52;44.90;95231.94;6181386;28;104379;-68
2022/08/04 00:24:45;;;;;;;3.57;3.30;;;;;;;26.58;44.63;95230.66;6181240;28;103912;-71
2022/08/04 00:27:49;;;;;;;4.27;3.97;;;;;;;26.65;44.17;95230.91;6166273;28;105718;-69
2022/08/04 00:30:54;;;;;;;4.00;3.70;;;;;;;26.65;44.04;95219.38;6165348;28;103923;-69
2022/08/04 00:33:58;;;;;;;4.07;3.47;;;;;;;26.69;44.40;95223.75;6162769;28;104922;-70
2022/08/04 00:37:02;;;;;;;4.57;3.20;;;;;;;26.82;44.24;95214.63;6152685;28;103726;-71
2022/08/04 00:40:22;;;;;;;5.83;4.20;;;;;;;26.89;43.57;95218.69;6161160;28;106592;-71
2022/08/04 00:43:32;;;;;;;3.90;3.60;;;;;;;26.95;43.88;95228.88;6169593;28;103851;-70
2022/08/04 00:46:53;;;;;;;3.70;3.27;;;;;;;26.96;43.44;95232.34;6160601;28;103896;-71
2022/08/04 00:50:08;;;;;;;4.00;3.70;;;;;;;26.99;43.71;95229.00;6165395;28;103889;-70
2022/08/04 00:53:18;;;;;;;4.80;4.27;;;;;;;26.99;43.07;95220.94;6164117;28;103734;-72
2022/08/04 00:56:42;;;;;;;4.30;4.00;;;;;;;27.07;42.91;95228.13;6181278;28;103900;-70
2022/08/04 00:59:59;;;;;;;3.50;3.20;;;;;;;27.00;43.31;95230.56;6176695;28;104135;-70
2022/08/04 01:03:18;;;;;;;4.27;3.33;;;;;;;26.98;43.15;95235.50;6184329;28;103927;-69
2022/08/04 01:06:37;;;;;;;3.80;3.60;;;;;;;26.82;43.48;95246.06;6175449;28;103824;-71
2022/08/04 01:09:49;;;;;;;3.50;3.30;;;;;;;26.63;43.23;95233.16;6176698;28;104556;-71
2022/08/04 01:13:26;;;;;;;3.40;3.10;;;;;;;26.64;43.38;95240.09;6155751;28;104081;-70
2022/08/04 01:16:31;;;;;;;3.60;3.40;;;;;;;26.54;43.50;95229.72;6175580;28;103109;-69
2022/08/04 01:20:05;;;;;;;3.97;3.67;;;;;;;26.54;43.60;95235.09;6160273;28;103699;-70
2022/08/04 01:23:44;;;;;;;4.30;4.00;;;;;;;26.47;43.60;95240.22;6165032;28;104007;-70
2022/08/04 01:26:52;;;;;;;5.10;3.80;;;;;;;26.28;43.47;95238.78;6162963;28;103586;-70
2022/08/04 01:30:02;;;;;;;3.87;3.60;;;;;;;26.26;43.58;95227.59;6174830;28;103573;-71
2022/08/04 01:33:09;;;;;;;4.60;3.73;;;;;;;26.50;43.43;95237.66;6163419;28;103760;-70
2022/08/04 01:36:13;;;;;;;3.80;3.50;;;;;;;26.50;43.45;95226.13;6164164;28;107461;-69
2022/08/04 01:42:44;;;;;;;3.83;3.40;;;;;;;26.27;43.12;95183.56;6184668;28;104048;-68
2022/08/04 01:45:56;;;;;;;5.00;3.17;;;;;;;26.56;42.55;95246.31;6166151;28;103614;-70
2022/08/04 01:49:02;;;;;;;3.60;3.23;;;;;;;26.41;42.97;95238.84;6182807;28;103470;-70
2022/08/04 01:52:09;;;;;;;3.73;3.43;;;;;;;26.47;42.94;95235.63;6184095;28;103456;-71
2022/08/04 01:55:13;;;;;;;4.30;3.90;;;;;;;26.51;43.11;95231.16;6176657;28;104130;-70
2022/08/04 01:58:19;;;;;;;3.80;3.47;;;;;;;26.41;42.86;95228.91;6166701;28;103726;-70
2022/08/04 02:01:24;;;;;;;3.60;3.30;;;;;;;26.36;43.28;95239.03;6175855;28;103999;-71
2022/08/04 02:04:27;;;;;;;3.73;3.23;;;;;;;26.26;42.90;95235.66;6160645;28;103261;-70
2022/08/04 02:07:47;;;;;;;3.67;3.47;;;;;;;26.24;43.50;95237.88;6175271;28;103813;-71
2022/08/04 02:11:03;;;;;;;4.00;3.70;;;;;;;26.27;43.20;95234.53;6180121;28;104606;-70
2022/08/04 02:17:55;;;;;;;3.23;3.03;;;;;;;26.07;43.68;95235.31;6163817;28;103689;-71
2022/08/04 02:21:00;;;;;;;3.40;3.17;;;;;;;25.75;44.33;95231.38;6151526;28;103425;-69
2022/08/04 02:24:07;;;;;;;3.60;3.40;;;;;;;25.84;44.14;95221.38;6160322;28;104514;-71
2022/08/04 02:27:13;;;;;;;3.77;3.43;;;;;;;26.10;44.26;95233.88;6166470;28;104274;-70
2022/08/04 02:30:18;;;;;;;4.00;3.70;;;;;;;26.16;43.52;95232.56;6163785;28;103675;-69
2022/08/04 02:33:36;;;;;;;4.57;4.27;;;;;;;26.15;43.74;95234.47;6174096;28;106240;-69
2022/08/04 02:36:42;;;;;;;5.00;3.83;;;;;;;26.06;43.75;95233.75;6165778;28;104125;-68
2022/08/04 02:39:47;;;;;;;4.03;3.43;;;;;;;26.02;43.65;95229.34;6163941;28;104670;-71
2022/08/04 02:42:56;;;;;;;5.10;4.80;;;;;;;26.02;43.52;95235.50;6152577;28;103730;-70
2022/08/04 02:46:03;;;;;;;4.87;4.37;;;;;;;25.79;43.96;95231.53;6181967;28;106561;-69
2022/08/04 02:49:22;;;;;;;7.03;4.63;;;;;;;25.62;44.68;95240.44;6187490;28;103450;-69
2022/08/04 02:52:29;;;;;;;10.83;9.97;;;;;;;25.67;44.63;95234.88;6187401;28;103860;-71
2022/08/04 02:55:33;;;;;;;20.43;18.80;;;;;;;25.78;44.30;95232.63;6170805;28;105298;-72
2022/08/04 02:58:38;;;;;;;13.83;12.60;;;;;;;25.74;44.35;95229.03;6161272;28;105276;-71
2022/08/04 03:01:42;;;;;;;8.40;7.60;;;;;;;25.76;44.32;95240.22;6162296;28;103822;-70
2022/08/04 03:05:07;;;;;;;7.33;6.73;;;;;;;25.68;44.52;95231.09;6159579;28;103713;-70
2022/08/04 03:08:38;;;;;;;7.87;6.10;;;;;;;25.66;44.68;95238.69;6186851;28;103971;-70
2022/08/04 03:11:57;;;;;;;7.50;6.20;;;;;;;25.68;44.63;95233.78;6186745;28;103809;-70
2022/08/04 03:15:35;;;;;;;7.20;6.50;;;;;;;25.72;44.93;95231.25;6171331;28;103816;-70
2022/08/04 03:19:11;;;;;;;7.27;6.70;;;;;;;25.91;44.34;95239.66;6181946;28;103817;-73
2022/08/04 03:22:29;;;;;;;7.13;6.43;;;;;;;-145.53;100.00;64590.91;6235681;28;107112;-69
2022/08/04 03:26:04;;;;;;;5.97;5.40;;;;;;;-145.53;100.00;64590.91;6289570;28;20803;-69
2022/08/04 03:29:26;;;;;;;9.33;4.23;;;;;;;-145.53;100.00;64590.91;6240467;28;20438;-68
2022/08/04 03:33:22;;;;;;;6.37;5.10;;;;;;;-145.53;100.00;64590.91;6282401;28;20952;-71
2022/08/04 03:36:53;;;;;;;7.10;4.00;;;;;;;26.46;42.61;95225.22;6263074;28;102698;-70
2022/08/04 03:40:40;;;;;;;5.27;3.97;;;;;;;26.60;43.00;95235.69;6165160;28;106856;-67
2022/08/04 03:44:13;;;;;;;5.53;4.33;;;;;;;26.66;43.05;95237.84;6164332;28;105092;-68
2022/08/04 03:47:40;;;;;;;6.93;5.23;;;;;;;26.73;42.44;95242.69;6185735;28;103647;-67
2022/08/04 03:55:21;;;;;;;9.20;4.37;;;;;;;26.45;42.35;95232.50;6183946;28;103692;-70
2022/08/04 03:58:48;;;;;;;7.73;3.80;;;;;;;26.35;42.60;95232.09;6089427;28;107464;-71
2022/08/04 04:02:15;;;;;;;8.30;3.63;;;;;;;26.18;43.04;95233.78;6174457;28;104538;-71
2022/08/04 04:05:45;;;;;;;10.57;4.43;;;;;;;26.16;42.98;95243.28;6173029;28;106235;-71
2022/08/04 04:09:49;;;;;;;17.30;5.23;;;;;;;26.17;43.10;95250.22;6161867;28;104181;-70
2022/08/04 04:13:28;;;;;;;15.37;4.77;;;;;;;26.17;43.66;95242.97;6164253;28;103837;-71
2022/08/04 04:16:57;;;;;;;10.00;4.13;;;;;;;26.28;43.39;95244.16;6181762;28;103851;-70
2022/08/04 04:20:36;;;;;;;11.50;4.77;;;;;;;26.42;43.26;95253.84;6183088;28;103771;-71
2022/08/04 04:24:08;;;;;;;14.60;4.50;;;;;;;26.57;43.55;95258.59;6173551;28;103654;-69
2022/08/04 04:27:25;;;;;;;14.47;4.97;;;;;;;26.66;43.67;95250.50;6173530;28;104365;-71
2022/08/04 04:30:38;;;;;;;15.33;5.53;;;;;;;26.72;43.51;95254.56;6177248;28;103548;-70
2022/08/04 04:33:58;;;;;;;14.10;6.30;;;;;;;26.68;43.05;95245.56;6178445;28;103784;-69
2022/08/04 04:37:15;;;;;;;7.53;6.00;;;;;;;26.73;42.88;95254.22;6152418;28;103803;-70
2022/08/04 04:40:34;;;;;;;5.20;4.63;;;;;;;26.74;43.44;95255.78;6174074;28;104334;-71
2022/08/04 04:44:14;;;;;;;7.13;5.17;;;;;;;26.13;44.52;95252.00;6182990;28;103186;-70
2022/08/04 04:47:31;;;;;;;5.97;5.37;;;;;;;26.12;44.63;95256.56;6157822;28;103730;-69
2022/08/04 04:51:12;;;;;;;6.97;5.87;;;;;;;26.06;44.79;95263.25;6175554;28;103680;-69
2022/08/04 04:54:25;;;;;;;6.70;6.10;;;;;;;25.80;45.20;95267.94;6176249;28;103802;-70
2022/08/04 04:57:34;;;;;;;6.37;5.90;;;;;;;25.75;45.52;95266.25;6176573;28;105022;-71
2022/08/04 05:01:18;;;;;;;6.87;6.17;;;;;;;25.42;45.85;95266.06;6173115;28;103893;-70
2022/08/04 05:04:39;;;;;;;11.40;6.80;;;;;;;25.32;46.65;95266.38;6160333;28;105295;-70
2022/08/04 05:08:27;;;;;;;8.47;6.60;;;;;;;25.36;47.37;95254.72;6159459;28;103954;-71
2022/08/04 05:12:31;;;;;;;9.30;6.00;;;;;;;25.63;46.55;95256.19;6145084;28;104201;-70
2022/08/04 05:16:00;;;;;;;6.67;5.17;;;;;;;25.91;46.19;95261.09;6160651;28;103871;-70
2022/08/04 05:19:16;;;;;;;6.60;5.57;;;;;;;26.06;46.43;95265.94;6159787;28;103735;-69
2022/08/04 05:22:24;;;;;;;11.13;6.20;;;;;;;26.24;45.76;95275.44;6150446;28;103942;-70
2022/08/04 05:25:35;;;;;;;6.03;5.43;;;;;;;26.40;45.74;95274.84;6158157;28;103596;-71
2022/08/04 05:28:45;;;;;;;7.77;5.90;;;;;;;26.49;45.79;95275.56;6158969;28;103721;-69
2022/08/04 05:31:54;;;;;;;6.60;5.50;;;;;;;26.54;45.45;95273.44;6154283;28;103651;-70
2022/08/04 05:35:05;;;;;;;9.00;6.33;;;;;;;26.57;45.85;95263.97;6154076;28;103531;-69
2022/08/04 05:38:14;;;;;;;10.73;6.37;;;;;;;26.50;46.03;95256.44;6160260;28;103574;-71
2022/08/04 05:41:19;;;;;;;7.10;6.40;;;;;;;26.55;45.50;95271.56;6160126;28;104014;-70
2022/08/04 05:44:28;;;;;;;6.70;6.10;;;;;;;26.38;46.92;95274.38;6151256;28;103546;-69
2022/08/04 05:47:34;;;;;;;9.10;6.73;;;;;;;26.30;46.95;95270.66;6160271;28;103971;-70
2022/08/04 05:50:44;;;;;;;8.63;6.40;;;;;;;26.35;47.14;95277.72;6159849;28;103661;-69
2022/08/04 05:53:49;;;;;;;7.40;6.70;;;;;;;26.19;47.53;95278.28;6161089;28;104267;-71
2022/08/04 05:56:55;;;;;;;8.33;7.53;;;;;;;26.03;47.84;95284.56;6150203;28;103614;-69
2022/08/04 06:00:05;;;;;;;9.90;7.67;;;;;;;26.08;48.36;95287.84;6167098;28;103635;-70
2022/08/04 06:03:29;;;;;;;8.57;6.37;;;;;;;26.09;47.71;95283.28;6186447;28;103413;-69
2022/08/04 06:06:34;;;;;;;9.20;6.97;;;;;;;26.06;48.00;95282.03;6179116;28;103824;-71
2022/08/04 06:09:38;;;;;;;10.27;7.40;;;;;;;26.17;48.73;95269.78;6187838;28;103938;-70
2022/08/04 06:12:47;;;;;;;9.73;7.27;;;;;;;26.11;48.83;95292.56;6188809;28;104693;-71
2022/08/04 06:15:56;;;;;;;7.70;7.00;;;;;;;26.36;48.77;95287.31;6189133;28;106876;-70
2022/08/04 06:19:04;;;;;;;7.23;6.37;;;;;;;26.61;47.72;95275.63;6178304;28;104241;-71
2022/08/04 06:22:29;;;;;;;8.10;6.60;;;;;;;26.76;47.18;95274.25;6187582;28;103657;-69
2022/08/04 06:25:42;;;;;;;8.57;7.80;;;;;;;26.75;46.96;95273.47;6188095;28;103786;-70
2022/08/04 06:28:48;;;;;;;9.77;7.90;;;;;;;26.28;48.45;95284.41;6183729;28;103945;-69
2022/08/04 06:32:12;;;;;;;8.60;7.67;;;;;;;26.14;49.10;95278.50;6183510;28;103485;-71
2022/08/04 06:35:35;;;;;;;7.47;6.77;;;;;;;26.27;48.45;95285.50;6188165;28;103706;-70
2022/08/04 06:38:40;;;;;;;7.70;6.93;;;;;;;26.39;47.75;95284.00;6188169;28;104180;-70
2022/08/04 06:41:44;;;;;;;8.60;7.20;;;;;;;26.17;46.99;95285.09;6178645;28;103857;-70
2022/08/04 06:45:09;;;;;;;7.30;6.60;;;;;;;26.11;46.98;95284.50;6188422;28;103451;-71
2022/08/04 06:48:16;;;;;;;7.27;6.67;;;;;;;26.17;47.14;95285.88;6187879;28;106207;-69
2022/08/04 06:51:22;;;;;;;8.67;7.73;;;;;;;26.14;47.10;95286.53;6183854;28;104047;-70
2022/08/04 06:54:43;;;;;;;9.37;8.40;;;;;;;26.02;47.07;95283.75;6184439;28;103679;-69
2022/08/04 06:57:47;;;;;;;8.90;8.10;;;;;;;25.97;47.63;95275.88;6188271;28;103653;-69
2022/08/04 07:00:51;;;;;;;23.90;9.17;;;;;;;25.97;47.80;95271.31;6187770;28;103936;-69
2022/08/04 07:03:56;;;;;;;28.43;9.40;;;;;;;26.37;47.16;95278.94;6177899;28;103598;-71
2022/08/04 07:07:00;;;;;;;20.73;9.63;;;;;;;26.57;46.88;95293.50;6187793;28;103983;-73
2022/08/04 07:10:04;;;;;;;11.37;8.70;;;;;;;26.58;47.23;95289.69;6186519;28;103732;-71
2022/08/04 07:13:08;;;;;;;378.60;25.33;;;;;;;26.67;46.91;95284.28;6187147;28;103436;-70
2022/08/04 07:16:14;;;;;;;271.10;22.93;;;;;;;26.82;47.04;95284.44;6177010;28;103385;-69
2022/08/04 07:19:18;;;;;;;37.30;9.70;;;;;;;26.71;47.13;95277.13;6187468;28;103534;-71
2022/08/04 07:22:22;;;;;;;171.13;18.27;;;;;;;26.83;47.57;95283.34;6187429;28;106917;-70
2022/08/04 07:25:28;;;;;;;85.47;13.30;;;;;;;26.73;47.19;95277.59;6181183;28;104627;-72
2022/08/04 07:28:51;;;;;;;55.77;11.43;;;;;;;26.74;46.68;95268.44;6186642;28;103953;-70
2022/08/04 07:31:55;;;;;;;32.97;10.87;;;;;;;26.47;47.31;95267.84;6186157;28;104305;-69
2022/08/04 07:35:01;;;;;;;26.50;9.70;;;;;;;26.37;47.66;95273.59;6186726;28;103651;-69
2022/08/04 07:38:05;;;;;;;22.47;8.40;;;;;;;26.38;48.10;95279.72;6176883;28;103685;-72
2022/08/04 07:41:12;;;;;;;21.17;7.97;;;;;;;26.66;47.23;95270.06;6186692;28;103856;-73
2022/08/04 07:44:35;;;;;;;19.07;7.20;;;;;;;26.89;46.18;95273.19;6186908;28;103918;-74
2022/08/04 07:47:39;;;;;;;11.27;7.17;;;;;;;26.99;46.33;95264.69;6186289;28;103030;-72
2022/08/04 07:51:05;;;;;;;13.37;6.90;;;;;;;27.17;46.02;95271.47;6181751;28;103249;-71
2022/08/04 07:54:09;;;;;;;12.10;7.00;;;;;;;27.24;46.28;95272.84;6186160;28;104022;-73
2022/08/04 07:57:13;;;;;;;12.00;6.53;;;;;;;27.22;45.58;95259.72;6185703;28;103411;-74
2022/08/04 08:00:23;;;;;;;11.07;6.23;;;;;;;27.50;46.13;95275.25;6176605;28;103666;-69
2022/08/04 08:03:27;;;;;;;8.80;6.63;;;;;;;27.63;45.37;95271.44;6186105;28;103866;-69
2022/08/04 08:06:32;;;;;;;8.47;6.90;;;;;;;27.74;45.15;95264.50;6186056;28;103358;-69
2022/08/04 08:09:39;;;;;;;9.53;6.87;;;;;;;27.83;45.02;95262.47;6185142;28;103962;-69
2022/08/04 08:12:43;;;;;;;7.37;6.43;;;;;;;27.94;44.90;95262.84;6176141;28;103475;-70
2022/08/04 08:15:54;;;;;;;9.00;7.00;;;;;;;27.97;45.23;95264.84;6186918;28;103824;-72
2022/08/04 08:18:57;;;;;;;11.77;7.30;;;;;;;27.97;44.68;95264.84;6186455;28;103478;-72
2022/08/04 08:22:02;;;;;;;9.80;7.17;;;;;;;28.00;44.35;95256.09;6181604;28;103988;-71
2022/08/04 08:25:06;;;;;;;7.93;6.93;;;;;;;28.10;44.47;95265.63;6180164;28;103863;-72
2022/08/04 08:28:10;;;;;;;9.70;6.37;;;;;;;28.08;44.92;95262.50;6185139;28;103892;-74
2022/08/04 08:31:13;;;;;;;10.90;6.57;;;;;;;28.03;44.66;95269.66;6185661;28;103824;-72
2022/08/04 08:34:16;;;;;;;13.77;6.73;;;;;;;27.98;44.39;95269.88;6177234;28;104230;-69
2022/08/04 08:37:35;;;;;;;12.07;6.90;;;;;;;27.95;44.38;95269.78;6185562;28;103708;-69
2022/08/04 08:40:50;;;;;;;10.20;7.40;;;;;;;27.92;44.52;95265.09;6185191;28;103834;-71
2022/08/04 08:44:10;;;;;;;9.97;6.20;;;;;;;27.90;45.01;95264.63;6185655;28;103891;-69
2022/08/04 08:47:47;;;;;;;12.07;8.10;;;;;;;27.72;45.25;95270.22;6176692;28;103682;-71
2022/08/04 08:51:43;;;;;;;14.13;7.40;;;;;;;27.65;45.39;95266.50;6186043;28;103664;-70
2022/08/04 08:55:13;;;;;;;15.60;8.07;;;;;;;27.93;45.77;95264.75;6175655;28;105961;-70
2022/08/04 08:58:35;;;;;;;10.57;7.60;;;;;;;27.93;44.91;95251.28;6175592;28;103773;-70
2022/08/04 09:01:58;;;;;;;18.63;8.20;;;;;;;28.10;44.64;95258.34;6184775;28;103610;-71
2022/08/04 09:05:29;;;;;;;11.90;7.13;;;;;;;28.21;45.15;95248.66;6185181;28;103999;-69
2022/08/04 09:08:55;;;;;;;11.97;7.10;;;;;;;28.35;44.97;95257.13;6174369;28;103850;-68
2022/08/04 09:12:09;;;;;;;10.80;6.90;;;;;;;28.43;44.05;95251.97;6185455;28;105015;-69
2022/08/04 09:15:15;;;;;;;15.47;7.57;;;;;;;28.48;44.56;95249.84;6184396;28;103976;-71
2022/08/04 09:18:24;;;;;;;18.50;8.50;;;;;;;28.45;44.14;95247.81;6185241;28;103637;-76
2022/08/04 09:21:37;;;;;;;21.13;9.60;;;;;;;28.27;44.56;95243.84;6175965;28;106823;-70
2022/08/04 09:24:50;;;;;;;17.20;9.30;;;;;;;28.22;44.44;95239.44;6184813;28;104030;-71
2022/08/04 09:27:59;;;;;;;16.97;7.87;;;;;;;28.16;44.97;95226.56;6185346;28;106581;-71
2022/08/04 09:31:15;;;;;;;13.77;8.60;;;;;;;28.04;44.83;95228.16;6174793;28;103768;-71
2022/08/04 09:34:26;;;;;;;16.50;9.37;;;;;;;28.07;44.60;95228.63;6183960;28;104143;-72
2022/08/04 09:37:41;;;;;;;15.77;8.43;;;;;;;28.10;44.16;95234.13;6187903;28;103632;-71
2022/08/04 09:40:56;;;;;;;12.57;7.20;;;;;;;28.05;44.75;95239.72;6192879;28;103964;-71
2022/08/04 09:44:18;;;;;;;11.43;7.73;;;;;;;28.02;44.38;95235.00;6183562;28;103575;-72
2022/08/04 09:47:49;;;;;;;12.53;7.50;;;;;;;27.95;44.42;95232.91;6192778;28;104781;-70
2022/08/04 09:50:56;;;;;;;10.93;7.30;;;;;;;27.96;44.54;95234.47;6192937;28;103723;-70
2022/08/04 09:54:06;;;;;;;7.40;6.67;;;;;;;28.00;44.81;95229.97;6182581;28;103877;-70
2022/08/04 09:57:16;;;;;;;8.90;6.50;;;;;;;27.96;43.85;95231.78;6192569;28;103790;-72
2022/08/04 10:00:21;;;;;;;8.10;6.70;;;;;;;28.03;44.19;95221.22;6192403;28;103659;-71
2022/08/04 10:03:55;;;;;;;9.57;7.33;;;;;;;28.15;44.02;95225.78;6192439;28;103733;-71
2022/08/04 10:07:38;;;;;;;8.43;6.53;;;;;;;28.28;43.78;95231.94;6186481;28;104056;-70
2022/08/04 10:10:51;;;;;;;6.40;5.80;;;;;;;28.33;42.98;95226.31;6186395;28;104179;-70
2022/08/04 10:14:01;;;;;;;7.23;6.57;;;;;;;28.30;43.57;95227.00;6191944;28;103908;-72
2022/08/04 10:17:19;;;;;;;7.40;6.70;;;;;;;28.39;43.35;95224.94;6183205;28;103878;-71
2022/08/04 10:20:46;;;;;;;7.30;6.70;;;;;;;28.36;42.72;95215.63;6193017;28;103948;-71
2022/08/04 10:24:15;;;;;;;7.63;6.93;;;;;;;28.13;42.48;95224.56;6191303;28;103999;-70
2022/08/04 10:27:25;;;;;;;8.63;6.50;;;;;;;28.19;42.51;95220.50;6184258;28;103950;-71
2022/08/04 10:30:32;;;;;;;6.70;6.20;;;;;;;28.22;43.07;95219.81;6192489;28;104053;-70
2022/08/04 10:33:49;;;;;;;12.50;6.60;;;;;;;28.21;42.64;95213.66;6192349;28;103674;-71
2022/08/04 10:36:59;;;;;;;7.23;6.50;;;;;;;28.13;42.54;95217.28;6191819;28;103000;-73
2022/08/04 10:43:40;;;;;;;8.00;7.40;;;;;;;28.11;42.73;95202.59;6192395;28;103572;-69
2022/08/04 10:46:48;;;;;;;10.10;7.80;;;;;;;28.05;43.16;95202.81;6191802;28;104068;-74
2022/08/04 10:49:56;;;;;;;8.33;7.47;;;;;;;28.12;42.74;95198.78;6183710;28;103387;-68
2022/08/04 10:53:05;;;;;;;26.50;15.33;;;;;;;28.09;43.33;95199.47;6185858;28;103418;-69
2022/08/04 10:56:19;;;;;;;43.27;16.10;;;;;;;28.21;43.76;95207.50;6187735;28;103883;-70
2022/08/04 10:59:28;;;;;;;32.70;15.53;;;;;;;28.32;43.12;95195.91;6187166;28;103716;-73
2022/08/04 11:02:39;;;;;;;63.70;20.70;;;;;;;28.14;42.58;95169.63;6177518;28;104131;-70
2022/08/04 11:05:49;;;;;;;61.20;22.73;;;;;;;28.39;42.99;95194.53;6187050;28;103966;-68
2022/08/04 11:08:54;;;;;;;49.53;20.40;;;;;;;28.44;42.81;95178.94;6186672;28;103424;-71
2022/08/04 11:12:07;;;;;;;97.10;34.07;;;;;;;28.55;42.92;95185.41;6185376;28;104054;-69
2022/08/04 11:15:18;;;;;;;68.90;26.50;;;;;;;28.61;42.53;95184.03;6182057;28;103548;-68
2022/08/04 11:18:29;;;;;;;70.53;26.67;;;;;;;28.55;42.45;95176.53;6187983;28;103317;-68
2022/08/04 11:21:39;;;;;;;61.73;27.53;;;;;;;28.53;42.32;95179.59;6186608;28;104037;-71
2022/08/04 11:24:53;;;;;;;52.40;23.53;;;;;;;28.47;42.43;95177.50;6176927;28;103935;-70
2022/08/04 11:28:09;;;;;;;59.17;25.50;;;;;;;28.33;42.10;95175.16;6186968;28;103446;-72
2022/08/04 11:31:17;;;;;;;89.00;34.23;;;;;;;28.11;43.34;95173.78;6187723;28;103599;-71
2022/08/04 11:34:22;;;;;;;93.53;31.00;;;;;;;27.96;43.14;95175.28;6187483;28;103622;-73
2022/08/04 11:37:32;;;;;;;86.20;32.13;;;;;;;28.07;43.45;95167.53;6176904;28;104170;-71
2022/08/04 11:40:41;;;;;;;72.70;33.10;;;;;;;28.12;42.71;95169.19;6187879;28;103560;-73
2022/08/04 11:44:05;;;;;;;74.43;39.77;;;;;;;27.98;43.20;95170.34;6185841;28;103338;-74
2022/08/04 11:47:24;;;;;;;94.03;56.27;;;;;;;28.04;43.09;95157.44;6177478;28;105713;-69
2022/08/04 11:50:40;;;;;;;113.07;61.23;;;;;;;28.10;43.30;95152.59;6186464;28;103742;-72
2022/08/04 11:53:45;;;;;;;104.43;58.67;;;;;;;28.22;42.74;95160.63;6186883;28;103656;-69
2022/08/04 11:56:48;;;;;;;87.00;56.50;;;;;;;28.38;43.07;95158.75;6186976;28;103619;-72
2022/08/04 11:59:55;;;;;;;92.33;52.73;;;;;;;28.41;42.24;95160.78;6175377;28;103735;-70
2022/08/04 12:03:24;;;;;;;86.63;52.37;;;;;;;28.43;42.16;95155.84;6187331;28;105899;-74
2022/08/04 12:06:36;;;;;;;73.37;51.50;;;;;;;28.49;42.60;95154.47;6186424;28;104333;-71
2022/08/04 12:09:48;;;;;;;71.33;48.50;;;;;;;28.59;42.28;95154.00;6176373;28;103962;-71
2022/08/04 12:13:03;;;;;;;83.47;56.10;;;;;;;28.59;42.19;95147.81;6185499;28;103927;-70
2022/08/04 12:16:15;;;;;;;89.77;63.80;;;;;;;28.55;42.07;95152.31;6185527;28;103636;-72
2022/08/04 12:19:24;;;;;;;403.43;233.90;;;;;;;28.39;41.58;95152.25;6186316;28;103642;-72
2022/08/04 12:22:37;;;;;;;377.10;241.50;;;;;;;28.26;41.83;95156.91;6176998;28;104194;-71
2022/08/04 12:25:48;;;;;;;307.57;228.10;;;;;;;28.21;42.54;95154.44;6186033;28;103766;-73
2022/08/04 12:28:58;;;;;;;283.60;203.63;;;;;;;28.11;42.49;95149.56;6185553;28;103610;-72
2022/08/04 12:32:20;;;;;;;255.33;188.77;;;;;;;28.08;42.60;95149.47;6177041;28;103877;-72
2022/08/04 12:35:31;;;;;;;211.00;173.97;;;;;;;28.06;42.54;95141.75;6185221;28;103685;-72
2022/08/04 12:38:35;;;;;;;208.20;166.77;;;;;;;28.08;41.93;95146.78;6185053;28;103648;-70
2022/08/04 12:41:45;;;;;;;205.23;165.47;;;;;;;28.03;42.02;95145.88;6185213;28;103831;-71
2022/08/04 12:44:53;;;;;;;206.90;184.40;;;;;;;27.95;42.68;95138.75;6176120;28;103604;-71
2022/08/04 12:47:59;;;;;;;201.10;179.63;;;;;;;27.99;42.22;95145.00;6184514;28;104258;-69
2022/08/04 12:51:02;;;;;;;201.47;175.37;;;;;;;27.97;42.32;95125.72;6185065;28;103962;-69
2022/08/04 12:54:06;;;;;;;187.90;167.73;;;;;;;28.16;42.26;95137.78;6185257;28;103513;-71
2022/08/04 12:57:13;;;;;;;196.60;175.93;;;;;;;28.24;42.19;95132.25;6176363;28;103570;-72
2022/08/04 13:00:28;;;;;;;198.70;177.60;;;;;;;28.38;42.02;95134.53;6184849;28;103967;-72
2022/08/04 13:03:45;;;;;;;181.30;162.27;;;;;;;27.65;42.16;95126.69;6185745;28;102789;-72
2022/08/04 13:06:56;;;;;;;172.93;154.60;;;;;;;27.17;42.02;95128.28;6175796;28;106574;-72
2022/08/04 13:10:02;;;;;;;163.07;146.90;;;;;;;26.91;41.13;95125.16;6184204;28;103644;-71
2022/08/04 13:13:14;;;;;;;168.17;145.10;;;;;;;26.75;41.33;95123.09;6184224;28;103775;-71
2022/08/04 13:16:17;;;;;;;173.17;146.77;;;;;;;26.56;41.38;95122.81;6184909;28;103749;-69
2022/08/04 13:19:22;;;;;;;156.20;134.97;;;;;;;26.35;40.84;95124.75;6173189;28;103728;-69
2022/08/04 13:22:27;;;;;;;135.83;115.60;;;;;;;26.24;41.31;95119.81;6184748;28;103603;-70
2022/08/04 13:25:32;;;;;;;128.67;101.57;;;;;;;26.24;39.86;95122.50;6184537;28;103971;-74
2022/08/04 13:29:02;;;;;;;95.10;81.57;;;;;;;26.14;39.63;95106.81;6178613;28;104030;-73
2022/08/04 13:32:22;;;;;;;80.77;69.90;;;;;;;26.01;40.18;95112.44;6184336;28;103702;-71
2022/08/04 13:35:26;;;;;;;81.23;59.57;;;;;;;25.92;39.86;95115.97;6184945;28;103442;-71
2022/08/04 13:38:53;;;;;;;67.33;52.33;;;;;;;25.91;40.01;95105.59;6184517;28;103346;-72
2022/08/04 13:42:00;;;;;;;71.50;50.40;;;;;;;25.75;39.19;95108.06;6174990;28;103654;-72
2022/08/04 13:45:08;;;;;;;54.80;46.63;;;;;;;25.50;39.45;95107.13;6185281;28;104365;-71
2022/08/04 13:48:12;;;;;;;56.27;43.27;;;;;;;25.36;39.32;95102.03;6171872;28;103790;-71
2022/08/04 13:51:35;;;;;;;50.43;42.83;;;;;;;25.11;39.20;95094.91;6153249;28;103653;-71
2022/08/04 13:54:58;;;;;;;47.80;37.50;;;;;;;25.02;38.88;95097.63;6160100;28;103377;-72
2022/08/04 13:58:09;;;;;;;37.67;33.47;;;;;;;25.04;39.36;95100.78;6159367;28;103805;-71
2022/08/04 14:01:20;;;;;;;36.90;32.17;;;;;;;25.02;39.65;95097.63;6160105;28;103705;-71
2022/08/04 14:04:42;;;;;;;32.83;29.60;;;;;;;24.96;39.63;95082.84;6149502;28;103363;-71
2022/08/04 14:07:47;;;;;;;31.60;28.23;;;;;;;25.11;39.04;95092.22;6160369;28;106292;-72
2022/08/04 14:10:54;;;;;;;31.70;28.37;;;;;;;25.19;39.12;95087.91;6158797;28;104677;-73
2022/08/04 14:13:57;;;;;;;29.10;25.90;;;;;;;25.20;39.02;95084.91;6155452;28;104707;-71
2022/08/04 14:17:05;;;;;;;29.07;25.60;;;;;;;25.23;38.98;95081.63;6155317;28;104321;-70
2022/08/04 14:20:08;;;;;;;26.13;23.63;;;;;;;25.28;38.82;95080.63;6158606;28;103728;-72
2022/08/04 14:23:12;;;;;;;25.77;23.03;;;;;;;25.29;38.48;95079.53;6159448;28;103915;-72
2022/08/04 14:26:21;;;;;;;25.40;22.77;;;;;;;25.25;38.55;95062.53;6155401;28;104756;-71
2022/08/04 14:29:40;;;;;;;24.03;21.80;;;;;;;25.36;38.34;95074.44;6163281;28;103718;-71
2022/08/04 14:32:56;;;;;;;22.40;20.10;;;;;;;25.96;39.03;95070.50;6164208;28;103408;-70
2022/08/04 14:36:00;;;;;;;19.73;17.13;;;;;;;26.47;38.78;95060.38;6163622;28;103700;-70
2022/08/04 14:39:11;;;;;;;21.63;16.70;;;;;;;26.68;38.03;95042.31;6156146;28;103424;-71
2022/08/04 14:42:15;;;;;;;17.07;14.50;;;;;;;26.92;38.11;95063.03;6163382;28;103762;-70
2022/08/04 14:45:19;;;;;;;13.90;12.60;;;;;;;27.10;37.83;95077.03;6164553;28;103714;-70
2022/08/04 14:48:25;;;;;;;12.20;9.77;;;;;;;27.16;37.80;95072.97;6157135;28;103411;-70
2022/08/04 14:51:28;;;;;;;13.87;9.90;;;;;;;27.12;37.85;95069.41;6162852;28;104067;-70
2022/08/04 14:54:38;;;;;;;8.50;7.90;;;;;;;27.17;38.17;95063.78;6162418;28;103654;-69
2022/08/04 14:57:44;;;;;;;8.70;8.10;;;;;;;27.27;37.95;95059.91;6162844;28;104324;-70
2022/08/04 15:01:09;;;;;;;7.43;6.93;;;;;;;27.30;38.36;95068.06;6153723;28;103972;-69
2022/08/04 15:04:16;;;;;;;7.50;6.57;;;;;;;27.45;38.00;95061.22;6162584;28;103722;-71
2022/08/04 15:07:19;;;;;;;7.10;6.60;;;;;;;27.58;38.14;95056.59;6163224;28;104246;-71